createdAt,value
2023-05-24T00:00:30.149Z,9.44
2023-05-24T00:01:31.654Z,9.43
2023-05-24T00:02:33.227Z,9.42
2023-05-24T00:03:35.046Z,9.40
2023-05-24T00:04:36.833Z,9.41
2023-05-24T00:05:38.355Z,9.40
2023-05-24T00:06:39.864Z,9.38
2023-05-24T00:07:41.404Z,9.37
2023-05-24T00:08:42.893Z,9.36
2023-05-24T00:09:44.404Z,9.34
2023-05-24T00:10:45.932Z,9.33
2023-05-24T00:11:47.450Z,9.30
2023-05-24T00:12:49.025Z,9.31
2023-05-24T00:13:50.557Z,9.30
2023-05-24T00:14:52.088Z,9.29
2023-05-24T00:15:53.612Z,9.29
2023-05-24T00:16:55.200Z,9.29
2023-05-24T00:17:56.788Z,9.30
2023-05-24T00:18:58.301Z,9.29
2023-05-24T00:19:59.871Z,9.29
2023-05-24T00:21:01.453Z,9.29
2023-05-24T00:22:02.972Z,9.29
2023-05-24T00:23:04.556Z,9.31
2023-05-24T00:24:06.221Z,9.32
2023-05-24T00:25:07.692Z,9.32
2023-05-24T00:26:09.174Z,9.31
2023-05-24T00:27:10.663Z,9.31
2023-05-24T00:28:12.209Z,9.31
2023-05-24T00:29:13.730Z,9.33
2023-05-24T00:30:15.292Z,9.33
2023-05-24T00:31:16.839Z,9.34
2023-05-24T00:32:18.339Z,9.35
2023-05-24T00:33:19.857Z,9.35
2023-05-24T00:34:21.340Z,9.35
2023-05-24T00:35:22.889Z,9.35
2023-05-24T00:36:24.408Z,9.35
2023-05-24T00:37:25.987Z,9.34
2023-05-24T00:38:27.593Z,9.33
2023-05-24T00:39:29.169Z,9.30
2023-05-24T00:40:30.691Z,9.28
2023-05-24T00:41:32.242Z,9.29
2023-05-24T00:42:33.749Z,9.27
2023-05-24T00:43:35.253Z,9.25
2023-05-24T00:44:36.767Z,9.24
2023-05-24T00:45:38.266Z,9.24
2023-05-24T00:46:39.913Z,9.23
2023-05-24T00:47:41.479Z,9.23
2023-05-24T00:48:43.025Z,9.22
2023-05-24T00:49:44.528Z,9.20
2023-05-24T00:50:46.046Z,9.18
2023-05-24T00:51:47.536Z,9.16
2023-05-24T00:52:49.009Z,9.15
2023-05-24T00:53:50.527Z,9.13
2023-05-24T00:54:52.040Z,9.11
2023-05-24T00:55:53.528Z,9.08
2023-05-24T00:56:55.006Z,9.04
2023-05-24T00:57:56.513Z,9.03
2023-05-24T00:58:58.058Z,9.02
2023-05-24T00:59:59.562Z,8.99
2023-05-24T01:01:01.056Z,8.97
2023-05-24T01:02:02.606Z,8.95
2023-05-24T01:03:04.198Z,8.94
2023-05-24T01:04:05.783Z,8.93
2023-05-24T01:05:07.269Z,8.91
2023-05-24T01:06:08.844Z,8.91
2023-05-24T01:07:10.357Z,8.91
2023-05-24T01:08:11.862Z,8.90
2023-05-24T01:09:13.382Z,8.90
2023-05-24T01:10:14.863Z,8.89
2023-05-24T01:11:16.387Z,8.90
2023-05-24T01:12:17.882Z,8.90
2023-05-24T01:13:19.363Z,8.90
2023-05-24T01:14:20.881Z,8.90
2023-05-24T01:15:22.364Z,8.89
2023-05-24T01:16:23.886Z,8.88
2023-05-24T01:17:25.422Z,8.87
2023-05-24T01:18:26.923Z,8.86
2023-05-24T01:19:28.454Z,8.86
2023-05-24T01:20:29.981Z,8.86
2023-05-24T01:21:31.505Z,8.85
2023-05-24T01:22:33.012Z,8.85
2023-05-24T01:23:34.533Z,8.85
2023-05-24T01:24:36.081Z,8.82
2023-05-24T01:25:37.574Z,8.81
2023-05-24T01:26:39.072Z,8.79
2023-05-24T01:27:40.591Z,8.79
2023-05-24T01:28:42.168Z,8.78
2023-05-24T01:29:43.795Z,8.76
2023-05-24T01:30:45.278Z,8.73
2023-05-24T01:31:46.890Z,8.70
2023-05-24T01:32:48.518Z,8.69
2023-05-24T01:33:50.065Z,8.68
2023-05-24T01:34:51.662Z,8.65
2023-05-24T01:35:53.189Z,8.62
2023-05-24T01:36:54.834Z,8.62
2023-05-24T01:37:56.328Z,8.63
2023-05-24T01:38:57.805Z,8.61
2023-05-24T01:39:59.318Z,8.59
2023-05-24T01:41:00.801Z,8.59
2023-05-24T01:42:02.318Z,8.59
2023-05-24T01:43:03.834Z,8.58
2023-05-24T01:44:05.311Z,8.56
2023-05-24T01:45:06.874Z,8.54
2023-05-24T01:46:08.377Z,8.52
2023-05-24T01:47:09.923Z,8.50
2023-05-24T01:48:11.473Z,8.47
2023-05-24T01:49:12.965Z,8.44
2023-05-24T01:50:14.515Z,8.41
2023-05-24T01:51:16.060Z,8.41
2023-05-24T01:52:17.648Z,8.38
2023-05-24T01:53:19.191Z,8.37
2023-05-24T01:54:20.662Z,8.37
2023-05-24T01:55:22.187Z,8.37
2023-05-24T01:56:23.751Z,8.36
2023-05-24T01:57:25.252Z,8.34
2023-05-24T01:58:26.756Z,8.33
2023-05-24T01:59:28.260Z,8.31
2023-05-24T02:00:29.836Z,8.31
2023-05-24T02:01:31.468Z,8.31
2023-05-24T02:02:33.151Z,8.30
2023-05-24T02:03:34.769Z,8.29
2023-05-24T02:04:36.304Z,8.30
2023-05-24T02:05:37.876Z,8.29
2023-05-24T02:06:39.398Z,8.29
2023-05-24T02:07:40.913Z,8.30
2023-05-24T02:08:42.436Z,8.29
2023-05-24T02:09:43.936Z,8.29
2023-05-24T02:10:45.488Z,8.29
2023-05-24T02:11:46.967Z,8.27
2023-05-24T02:12:48.506Z,8.26
2023-05-24T02:13:50.009Z,8.27
2023-05-24T02:14:51.514Z,8.27
2023-05-24T02:15:53.034Z,8.24
2023-05-24T02:16:54.561Z,8.23
2023-05-24T02:17:56.144Z,8.22
2023-05-24T02:18:57.658Z,8.23
2023-05-24T02:19:59.169Z,8.22
2023-05-24T02:21:00.750Z,8.20
2023-05-24T02:22:02.220Z,8.19
2023-05-24T02:23:03.738Z,8.19
2023-05-24T02:24:05.225Z,8.18
2023-05-24T02:25:06.715Z,8.16
2023-05-24T02:26:08.206Z,8.15
2023-05-24T02:27:09.688Z,8.13
2023-05-24T02:28:11.232Z,8.12
2023-05-24T02:29:12.746Z,8.10
2023-05-24T02:30:14.238Z,8.08
2023-05-24T02:31:15.739Z,8.05
2023-05-24T02:32:17.263Z,8.03
2023-05-24T02:33:18.784Z,8.03
2023-05-24T02:34:20.312Z,8.01
2023-05-24T02:35:21.809Z,7.98
2023-05-24T02:36:23.301Z,7.98
2023-05-24T02:37:24.782Z,7.97
2023-05-24T02:38:26.320Z,7.95
2023-05-24T02:39:27.849Z,7.94
2023-05-24T02:40:29.349Z,7.94
2023-05-24T02:41:30.871Z,7.93
2023-05-24T02:42:32.352Z,7.93
2023-05-24T02:43:33.903Z,7.92
2023-05-24T02:44:35.490Z,7.92
2023-05-24T02:45:37.119Z,7.91
2023-05-24T02:46:38.821Z,7.91
2023-05-24T02:47:40.361Z,7.90
2023-05-24T02:48:41.894Z,7.90
2023-05-24T02:49:43.396Z,7.89
2023-05-24T02:50:44.998Z,7.87
2023-05-24T02:51:46.542Z,7.87
2023-05-24T02:52:48.039Z,7.85
2023-05-24T02:53:49.561Z,7.85
2023-05-24T02:54:51.079Z,7.84
2023-05-24T02:55:52.597Z,7.84
2023-05-24T02:56:54.149Z,7.83
2023-05-24T02:57:55.676Z,7.82
2023-05-24T02:58:57.171Z,7.81
2023-05-24T02:59:58.657Z,7.82
2023-05-24T03:01:00.149Z,7.81
2023-05-24T03:02:01.674Z,7.81
2023-05-24T03:03:03.361Z,7.82
2023-05-24T03:04:05.044Z,7.82
2023-05-24T03:05:06.602Z,7.80
2023-05-24T03:06:08.134Z,7.80
2023-05-24T03:07:09.620Z,7.79
2023-05-24T03:08:11.087Z,7.80
2023-05-24T03:09:12.571Z,7.79
2023-05-24T03:10:15.953Z,7.79
2023-05-24T03:11:17.605Z,7.78
2023-05-24T03:12:19.096Z,7.78
2023-05-24T03:13:20.582Z,7.76
2023-05-24T03:14:22.055Z,7.75
2023-05-24T03:15:23.589Z,7.74
2023-05-24T03:16:25.125Z,7.74
2023-05-24T03:17:26.665Z,7.73
2023-05-24T03:18:28.182Z,7.73
2023-05-24T03:19:29.667Z,7.72
2023-05-24T03:20:31.399Z,7.72
2023-05-24T03:21:32.981Z,7.71
2023-05-24T03:22:34.467Z,7.71
2023-05-24T03:23:35.946Z,7.70
2023-05-24T03:24:37.448Z,7.69
2023-05-24T03:25:38.941Z,7.67
2023-05-24T03:26:40.420Z,7.68
2023-05-24T03:27:41.888Z,7.67
2023-05-24T03:28:43.392Z,7.66
2023-05-24T03:29:44.853Z,7.66
2023-05-24T03:30:46.355Z,7.65
2023-05-24T03:31:47.882Z,7.65
2023-05-24T03:32:49.432Z,7.64
2023-05-24T03:33:50.966Z,7.65
2023-05-24T03:34:52.486Z,7.64
2023-05-24T03:35:54.479Z,7.63
2023-05-24T03:36:55.980Z,7.63
2023-05-24T03:37:57.502Z,7.62
2023-05-24T03:38:59.003Z,7.62
2023-05-24T03:40:00.545Z,7.59
2023-05-24T03:41:02.098Z,7.58
2023-05-24T03:42:03.614Z,7.57
2023-05-24T03:43:05.155Z,7.56
2023-05-24T03:44:06.650Z,7.55
2023-05-24T03:45:08.480Z,7.55
2023-05-24T03:46:10.084Z,7.53
2023-05-24T03:47:11.631Z,7.52
2023-05-24T03:48:13.146Z,7.53
2023-05-24T03:49:14.676Z,7.51
2023-05-24T03:50:16.168Z,7.49
2023-05-24T03:51:17.722Z,7.49
2023-05-24T03:52:19.211Z,7.49
2023-05-24T03:53:22.292Z,7.47
2023-05-24T03:54:24.665Z,7.48
2023-05-24T03:55:26.178Z,7.47
2023-05-24T03:56:27.681Z,7.46
2023-05-24T03:57:29.159Z,7.44
2023-05-24T03:58:30.666Z,7.43
2023-05-24T03:59:32.177Z,7.42
2023-05-24T04:00:33.697Z,7.41
2023-05-24T04:01:35.357Z,7.40
2023-05-24T04:02:36.991Z,7.39
2023-05-24T04:03:38.641Z,7.38
2023-05-24T04:04:40.296Z,7.38
2023-05-24T04:05:41.808Z,7.38
2023-05-24T04:06:43.365Z,7.36
2023-05-24T04:07:44.842Z,7.35
2023-05-24T04:08:46.343Z,7.35
2023-05-24T04:09:47.827Z,7.33
2023-05-24T04:10:49.296Z,7.33
2023-05-24T04:11:50.796Z,7.33
2023-05-24T04:12:52.318Z,7.33
2023-05-24T04:13:53.818Z,7.33
2023-05-24T04:14:55.455Z,7.32
2023-05-24T04:15:56.957Z,7.33
2023-05-24T04:16:58.545Z,7.35
2023-05-24T04:18:00.110Z,7.34
2023-05-24T04:19:01.721Z,7.32
2023-05-24T04:20:03.273Z,7.33
2023-05-24T04:21:04.801Z,7.31
2023-05-24T04:22:06.303Z,7.31
2023-05-24T04:23:07.779Z,7.31
2023-05-24T04:24:09.297Z,7.30
2023-05-24T04:25:10.884Z,7.31
2023-05-24T04:26:12.654Z,7.30
2023-05-24T04:27:14.151Z,7.31
2023-05-24T04:28:15.753Z,7.31
2023-05-24T04:29:17.257Z,7.32
2023-05-24T04:30:18.784Z,7.32
2023-05-24T04:31:20.414Z,7.32
2023-05-24T04:32:22.003Z,7.33
2023-05-24T04:33:23.535Z,7.32
2023-05-24T04:34:24.998Z,7.32
2023-05-24T04:35:26.501Z,7.32
2023-05-24T04:36:28.101Z,7.31
2023-05-24T04:37:29.611Z,7.32
2023-05-24T04:38:31.116Z,7.29
2023-05-24T04:39:32.622Z,7.29
2023-05-24T04:40:34.167Z,7.29
2023-05-24T04:41:35.668Z,7.29
2023-05-24T04:42:37.151Z,7.27
2023-05-24T04:43:38.678Z,7.27
2023-05-24T04:44:40.172Z,7.27
2023-05-24T04:45:41.659Z,7.28
2023-05-24T04:46:43.215Z,7.27
2023-05-24T04:47:44.858Z,7.27
2023-05-24T04:48:46.418Z,7.27
2023-05-24T04:49:47.948Z,7.26
2023-05-24T04:50:49.431Z,7.25
2023-05-24T04:51:51.651Z,7.25
2023-05-24T04:52:54.403Z,7.25
2023-05-24T04:53:55.985Z,7.25
2023-05-24T04:54:57.472Z,7.25
2023-05-24T04:55:58.964Z,7.25
2023-05-24T04:57:00.492Z,7.25
2023-05-24T04:58:01.981Z,7.25
2023-05-24T04:59:03.476Z,7.24
2023-05-24T05:00:04.960Z,7.24
2023-05-24T05:01:06.454Z,7.25
2023-05-24T05:02:08.104Z,7.26
2023-05-24T05:03:09.733Z,7.26
2023-05-24T05:04:11.663Z,7.27
2023-05-24T05:05:13.226Z,7.26
2023-05-24T05:06:14.740Z,7.27
2023-05-24T05:07:16.257Z,7.28
2023-05-24T05:08:17.843Z,7.28
2023-05-24T05:09:19.368Z,7.28
2023-05-24T05:10:23.623Z,7.29
2023-05-24T05:11:25.407Z,7.28
2023-05-24T05:12:26.880Z,7.28
2023-05-24T05:13:28.379Z,7.28
2023-05-24T05:14:29.959Z,7.28
2023-05-24T05:15:31.465Z,7.28
2023-05-24T05:16:32.997Z,7.28
2023-05-24T05:17:34.525Z,7.29
2023-05-24T05:18:36.025Z,7.30
2023-05-24T05:19:37.522Z,7.31
2023-05-24T05:20:39.023Z,7.32
2023-05-24T05:21:40.509Z,7.32
2023-05-24T05:22:41.995Z,7.33
2023-05-24T05:23:43.518Z,7.35
2023-05-24T05:24:45.032Z,7.34
2023-05-24T05:25:46.570Z,7.34
2023-05-24T05:26:48.142Z,7.35
2023-05-24T05:27:49.667Z,7.36
2023-05-24T05:28:51.242Z,7.35
2023-05-24T05:29:52.750Z,7.35
2023-05-24T05:30:54.255Z,7.34
2023-05-24T05:31:55.814Z,7.36
2023-05-24T05:32:57.560Z,7.36
2023-05-24T05:33:59.354Z,7.37
2023-05-24T05:35:00.964Z,7.38
2023-05-24T05:36:02.820Z,7.39
2023-05-24T05:37:04.347Z,7.40
2023-05-24T05:38:05.876Z,7.42
2023-05-24T05:39:07.385Z,7.43
2023-05-24T05:40:08.899Z,7.43
2023-05-24T05:41:10.421Z,7.44
2023-05-24T05:42:11.899Z,7.46
2023-05-24T05:43:13.401Z,7.48
2023-05-24T05:44:14.902Z,7.50
2023-05-24T05:45:16.557Z,7.51
2023-05-24T05:46:18.072Z,7.52
2023-05-24T05:47:19.654Z,7.55
2023-05-24T05:48:21.144Z,7.55
2023-05-24T05:49:22.659Z,7.58
2023-05-24T05:50:24.171Z,7.61
2023-05-24T05:51:25.676Z,7.64
2023-05-24T05:52:27.171Z,7.67
2023-05-24T05:53:28.667Z,7.71
2023-05-24T05:54:30.171Z,7.75
2023-05-24T05:55:31.717Z,7.79
2023-05-24T05:56:33.195Z,7.82
2023-05-24T05:57:34.688Z,7.87
2023-05-24T05:58:36.167Z,7.91
2023-05-24T05:59:37.649Z,7.94
2023-05-24T06:00:39.156Z,7.98
2023-05-24T06:01:40.670Z,8.01
2023-05-24T06:02:42.229Z,8.06
2023-05-24T06:03:43.996Z,8.12
2023-05-24T06:04:45.647Z,8.15
2023-05-24T06:05:47.164Z,8.20
2023-05-24T06:06:48.685Z,8.24
2023-05-24T06:07:50.205Z,8.27
2023-05-24T06:08:51.702Z,8.32
2023-05-24T06:09:53.221Z,8.34
2023-05-24T06:10:54.781Z,8.39
2023-05-24T06:11:56.288Z,8.42
2023-05-24T06:12:57.828Z,8.45
2023-05-24T06:13:59.354Z,8.47
2023-05-24T06:15:00.825Z,8.50
2023-05-24T06:16:02.339Z,8.53
2023-05-24T06:17:03.896Z,8.57
2023-05-24T06:18:05.433Z,8.59
2023-05-24T06:19:07.105Z,8.63
2023-05-24T06:20:08.618Z,8.66
2023-05-24T06:21:10.187Z,8.70
2023-05-24T06:22:11.666Z,8.73
2023-05-24T06:23:13.125Z,8.75
2023-05-24T06:24:14.589Z,8.77
2023-05-24T06:25:16.061Z,8.80
2023-05-24T06:26:17.618Z,8.81
2023-05-24T06:27:19.114Z,8.83
2023-05-24T06:28:20.606Z,8.86
2023-05-24T06:29:22.267Z,8.86
2023-05-24T06:30:23.850Z,8.87
2023-05-24T06:31:25.542Z,8.88
2023-05-24T06:32:27.123Z,8.89
2023-05-24T06:33:28.652Z,8.90
2023-05-24T06:34:30.168Z,8.92
2023-05-24T06:35:31.661Z,8.92
2023-05-24T06:36:33.167Z,8.92
2023-05-24T06:37:34.693Z,8.93
2023-05-24T06:38:36.175Z,8.93
2023-05-24T06:39:37.679Z,8.93
2023-05-24T06:40:39.223Z,8.92
2023-05-24T06:41:40.929Z,8.93
2023-05-24T06:42:42.449Z,8.94
2023-05-24T06:43:43.974Z,8.94
2023-05-24T06:44:45.478Z,8.95
2023-05-24T06:45:47.001Z,8.95
2023-05-24T06:46:48.502Z,8.96
2023-05-24T06:47:50.042Z,8.98
2023-05-24T06:48:51.688Z,9.00
2023-05-24T06:49:53.289Z,9.03
2023-05-24T06:50:54.787Z,9.03
2023-05-24T06:51:56.856Z,9.04
2023-05-24T06:52:58.397Z,9.04
2023-05-24T06:53:59.895Z,9.05
2023-05-24T06:55:01.409Z,9.05
2023-05-24T06:56:02.903Z,9.06
2023-05-24T06:57:04.521Z,9.05
2023-05-24T06:58:06.084Z,9.06
2023-05-24T06:59:07.552Z,9.06
2023-05-24T07:00:09.028Z,9.08
2023-05-24T07:01:10.621Z,9.08
2023-05-24T07:02:12.210Z,9.07
2023-05-24T07:03:13.714Z,9.06
2023-05-24T07:04:15.254Z,9.06
2023-05-24T07:05:16.799Z,9.06
2023-05-24T07:06:18.284Z,9.06
2023-05-24T07:07:19.799Z,9.07
2023-05-24T07:08:21.253Z,9.09
2023-05-24T07:09:22.739Z,9.10
2023-05-24T07:10:24.233Z,9.11
2023-05-24T07:11:25.860Z,9.12
2023-05-24T07:12:27.434Z,9.12
2023-05-24T07:13:28.942Z,9.12
2023-05-24T07:14:30.415Z,9.12
2023-05-24T07:15:31.909Z,9.10
2023-05-24T07:16:33.450Z,9.11
2023-05-24T07:17:35.041Z,9.10
2023-05-24T07:18:36.609Z,9.10
2023-05-24T07:19:38.100Z,9.10
2023-05-24T07:20:39.677Z,9.12
2023-05-24T07:21:41.277Z,9.13
2023-05-24T07:22:42.768Z,9.17
2023-05-24T07:23:44.297Z,9.19
2023-05-24T07:24:45.802Z,9.23
2023-05-24T07:25:47.340Z,9.23
2023-05-24T07:26:48.839Z,9.26
2023-05-24T07:27:50.344Z,9.30
2023-05-24T07:28:51.843Z,9.33
2023-05-24T07:29:53.304Z,9.34
2023-05-24T07:30:54.783Z,9.36
2023-05-24T07:31:56.376Z,9.38
2023-05-24T07:32:57.987Z,9.37
2023-05-24T07:33:59.551Z,9.37
2023-05-24T07:35:01.107Z,9.40
2023-05-24T07:36:02.632Z,9.41
2023-05-24T07:37:04.184Z,9.42
2023-05-24T07:38:05.711Z,9.43
2023-05-24T07:39:07.198Z,9.44
2023-05-24T07:40:08.687Z,9.46
2023-05-24T07:41:10.186Z,9.47
2023-05-24T07:42:11.727Z,9.48
2023-05-24T07:43:13.480Z,9.47
2023-05-24T07:44:15.018Z,9.49
2023-05-24T07:45:16.566Z,9.50
2023-05-24T07:46:18.100Z,9.52
2023-05-24T07:47:19.603Z,9.54
2023-05-24T07:48:21.108Z,9.56
2023-05-24T07:49:22.624Z,9.57
2023-05-24T07:50:24.134Z,9.61
2023-05-24T07:51:25.640Z,9.64
2023-05-24T07:52:27.166Z,9.68
2023-05-24T07:53:31.547Z,9.73
2023-05-24T07:54:33.048Z,9.75
2023-05-24T07:55:34.544Z,9.79
2023-05-24T07:56:36.036Z,9.82
2023-05-24T07:57:37.520Z,9.87
2023-05-24T07:58:39.058Z,9.90
2023-05-24T07:59:40.540Z,9.93
2023-05-24T08:00:41.996Z,9.95
2023-05-24T08:01:43.509Z,9.98
2023-05-24T08:02:45.057Z,10.00
2023-05-24T08:03:46.695Z,10.03
2023-05-24T08:04:48.293Z,10.04
2023-05-24T08:05:49.829Z,10.07
2023-05-24T08:06:51.367Z,10.08
2023-05-24T08:07:52.848Z,10.11
2023-05-24T08:08:54.378Z,10.14
2023-05-24T08:09:55.848Z,10.17
2023-05-24T08:10:57.350Z,10.20
2023-05-24T08:11:58.847Z,10.23
2023-05-24T08:13:00.362Z,10.28
2023-05-24T08:14:01.874Z,10.29
2023-05-24T08:15:03.370Z,10.32
2023-05-24T08:16:04.890Z,10.33
2023-05-24T08:17:06.401Z,10.35
2023-05-24T08:18:07.905Z,10.38
2023-05-24T08:19:09.472Z,10.40
2023-05-24T08:20:11.037Z,10.43
2023-05-24T08:21:12.542Z,10.44
2023-05-24T08:22:14.078Z,10.45
2023-05-24T08:23:15.557Z,10.48
2023-05-24T08:24:17.055Z,10.49
2023-05-24T08:25:18.544Z,10.53
2023-05-24T08:26:20.052Z,10.53
2023-05-24T08:27:21.540Z,10.55
2023-05-24T08:28:23.091Z,10.56
2023-05-24T08:29:24.669Z,10.56
2023-05-24T08:30:26.154Z,10.56
2023-05-24T08:31:27.682Z,10.58
2023-05-24T08:32:29.531Z,10.59
2023-05-24T08:33:31.069Z,10.59
2023-05-24T08:34:32.589Z,10.60
2023-05-24T08:35:34.085Z,10.60
2023-05-24T08:36:35.592Z,10.61
2023-05-24T08:37:37.090Z,10.62
2023-05-24T08:38:38.581Z,10.61
2023-05-24T08:39:40.121Z,10.60
2023-05-24T08:40:41.592Z,10.58
2023-05-24T08:41:44.517Z,10.57
2023-05-24T08:42:47.244Z,10.56
2023-05-24T08:43:48.749Z,10.55
2023-05-24T08:44:50.279Z,10.54
2023-05-24T08:45:51.844Z,10.52
2023-05-24T08:46:53.525Z,10.48
2023-05-24T08:47:55.214Z,10.47
2023-05-24T08:48:56.785Z,10.46
2023-05-24T08:49:58.294Z,10.48
2023-05-24T08:50:59.847Z,10.46
2023-05-24T08:52:01.326Z,10.47
2023-05-24T08:53:02.807Z,10.49
2023-05-24T08:54:04.326Z,10.51
2023-05-24T08:55:05.879Z,10.54
2023-05-24T08:56:07.382Z,10.56
2023-05-24T08:57:08.869Z,10.60
2023-05-24T08:58:10.378Z,10.62
2023-05-24T08:59:11.879Z,10.66
2023-05-24T09:00:13.362Z,10.67
2023-05-24T09:01:14.915Z,10.67
2023-05-24T09:02:16.513Z,10.70
2023-05-24T09:03:18.168Z,10.70
2023-05-24T09:04:19.834Z,10.70
2023-05-24T09:05:21.382Z,10.70
2023-05-24T09:06:22.879Z,10.72
2023-05-24T09:07:24.401Z,10.74
2023-05-24T09:08:25.931Z,10.75
2023-05-24T09:09:27.442Z,10.78
2023-05-24T09:10:35.307Z,10.79
2023-05-24T09:11:42.978Z,10.83
2023-05-24T09:12:44.464Z,10.86
2023-05-24T09:13:46.143Z,10.89
2023-05-24T09:14:47.654Z,10.92
2023-05-24T09:15:49.180Z,10.95
2023-05-24T09:16:50.706Z,10.99
2023-05-24T09:17:52.300Z,11.03
2023-05-24T09:18:54.260Z,11.08
2023-05-24T09:19:55.849Z,11.12
2023-05-24T09:20:57.423Z,11.15
2023-05-24T09:21:58.949Z,11.19
2023-05-24T09:23:00.455Z,11.20
2023-05-24T09:24:01.993Z,11.22
2023-05-24T09:25:03.584Z,11.21
2023-05-24T09:26:05.099Z,11.24
2023-05-24T09:27:06.580Z,11.24
2023-05-24T09:28:08.088Z,11.24
2023-05-24T09:29:09.717Z,11.24
2023-05-24T09:30:11.351Z,11.24
2023-05-24T09:31:12.966Z,11.26
2023-05-24T09:32:14.699Z,11.28
2023-05-24T09:33:16.245Z,11.29
2023-05-24T09:34:17.813Z,11.31
2023-05-24T09:35:19.277Z,11.32
2023-05-24T09:36:20.767Z,11.33
2023-05-24T09:37:26.688Z,11.37
2023-05-24T09:38:30.449Z,11.40
2023-05-24T09:39:31.940Z,11.43
2023-05-24T09:40:33.434Z,11.45
2023-05-24T09:41:34.908Z,11.46
2023-05-24T09:42:36.408Z,11.47
2023-05-24T09:43:37.909Z,11.48
2023-05-24T09:44:39.456Z,11.48
2023-05-24T09:45:40.962Z,11.50
2023-05-24T09:46:42.522Z,11.51
2023-05-24T09:47:44.144Z,11.54
2023-05-24T09:48:45.670Z,11.56
2023-05-24T09:49:49.177Z,11.61
2023-05-24T09:50:50.870Z,11.64
2023-05-24T09:51:52.458Z,11.68
2023-05-24T09:52:53.957Z,11.72
2023-05-24T09:53:55.532Z,11.76
2023-05-24T09:54:57.390Z,11.78
2023-05-24T09:55:58.966Z,11.80
2023-05-24T09:57:01.463Z,11.85
2023-05-24T09:58:04.180Z,11.88
2023-05-24T09:59:05.638Z,11.90
2023-05-24T10:00:07.198Z,11.93
2023-05-24T10:01:08.858Z,11.94
2023-05-24T10:02:10.491Z,11.98
2023-05-24T10:03:12.162Z,12.02
2023-05-24T10:04:13.986Z,12.04
2023-05-24T10:05:15.600Z,12.08
2023-05-24T10:06:17.094Z,12.09
2023-05-24T10:07:18.584Z,12.13
2023-05-24T10:08:20.073Z,12.15
2023-05-24T10:09:21.560Z,12.18
2023-05-24T10:10:23.064Z,12.19
2023-05-24T10:11:24.607Z,12.22
2023-05-24T10:12:26.106Z,12.27
2023-05-24T10:13:27.610Z,12.29
2023-05-24T10:14:29.120Z,12.33
2023-05-24T10:15:30.675Z,12.34
2023-05-24T10:16:32.240Z,12.37
2023-05-24T10:17:33.904Z,12.40
2023-05-24T10:18:35.413Z,12.42
2023-05-24T10:19:36.927Z,12.44
2023-05-24T10:20:38.708Z,12.45
2023-05-24T10:21:40.309Z,12.46
2023-05-24T10:22:41.866Z,12.48
2023-05-24T10:23:43.338Z,12.48
2023-05-24T10:24:44.858Z,12.49
2023-05-24T10:25:46.372Z,12.50
2023-05-24T10:26:47.882Z,12.50
2023-05-24T10:27:49.559Z,12.52
2023-05-24T10:28:51.072Z,12.52
2023-05-24T10:29:52.575Z,12.54
2023-05-24T10:30:54.232Z,12.57
2023-05-24T10:31:55.725Z,12.57
2023-05-24T10:32:57.301Z,12.54
2023-05-24T10:35:20.717Z,12.53
2023-05-24T10:36:22.195Z,12.49
2023-05-24T10:37:23.685Z,12.45
2023-05-24T10:38:25.209Z,12.43
2023-05-24T10:39:26.793Z,12.42
2023-05-24T10:40:28.315Z,12.39
2023-05-24T10:41:29.903Z,12.37
2023-05-24T10:41:49.924Z,12.53
2023-05-24T10:42:31.451Z,12.35
2023-05-24T10:43:32.972Z,12.34
2023-05-24T10:44:34.491Z,12.32
2023-05-24T10:45:36.183Z,12.31
2023-05-24T10:46:37.793Z,12.32
2023-05-24T10:47:39.501Z,12.32
2023-05-24T10:48:41.139Z,12.33
2023-05-24T10:49:42.755Z,12.32
2023-05-24T10:50:44.458Z,12.34
2023-05-24T10:51:46.327Z,12.35
2023-05-24T10:52:47.826Z,12.36
2023-05-24T10:53:49.325Z,12.37
2023-05-24T10:55:57.436Z,12.38
2023-05-24T10:56:58.965Z,12.39
2023-05-24T10:58:00.449Z,12.40
2023-05-24T10:59:01.956Z,12.42
2023-05-24T11:00:03.471Z,12.41
2023-05-24T11:01:04.984Z,12.41
2023-05-24T11:02:06.777Z,12.38
2023-05-24T11:03:08.372Z,12.37
2023-05-24T11:04:09.899Z,12.37
2023-05-24T11:05:11.491Z,12.37
2023-05-24T11:06:13.013Z,12.37
2023-05-24T11:07:14.542Z,12.36
2023-05-24T11:08:16.084Z,12.35
2023-05-24T11:09:17.633Z,12.36
2023-05-24T11:10:19.143Z,12.35
2023-05-24T11:11:26.760Z,12.35
2023-05-24T11:12:29.037Z,12.36
2023-05-24T11:13:30.524Z,12.37
2023-05-24T11:14:31.983Z,12.36
2023-05-24T11:15:33.487Z,12.34
2023-05-24T11:16:35.017Z,12.31
2023-05-24T11:17:36.646Z,12.31
2023-05-24T11:18:38.273Z,12.30
2023-05-24T11:19:39.790Z,12.28
2023-05-24T11:20:41.529Z,12.29
2023-05-24T11:21:43.449Z,12.30
2023-05-24T11:22:45.219Z,12.30
2023-05-24T11:23:46.731Z,12.31
2023-05-24T11:24:48.224Z,12.32
2023-05-24T11:25:49.746Z,12.32
2023-05-24T11:26:51.234Z,12.31
2023-05-24T11:27:52.992Z,12.29
2023-05-24T11:28:54.506Z,12.27
2023-05-24T11:29:55.998Z,12.26
2023-05-24T11:30:57.510Z,12.24
2023-05-24T11:31:59.073Z,12.22
2023-05-24T11:33:00.962Z,12.19
2023-05-24T11:34:02.480Z,12.19
2023-05-24T11:35:03.990Z,12.18
2023-05-24T11:36:05.550Z,12.18
2023-05-24T11:37:07.063Z,12.19
2023-05-24T11:38:08.577Z,12.20
2023-05-24T11:39:10.077Z,12.19
2023-05-24T11:40:11.593Z,12.18
2023-05-24T11:41:13.085Z,12.17
2023-05-24T11:42:14.594Z,12.15
2023-05-24T11:43:16.915Z,12.13
2023-05-24T11:44:18.508Z,12.09
2023-05-24T11:45:19.981Z,12.07
2023-05-24T11:46:21.549Z,12.05
2023-05-24T11:47:23.184Z,12.02
2023-05-24T11:48:24.820Z,12.00
2023-05-24T11:49:26.319Z,11.98
2023-05-24T11:50:28.901Z,11.96
2023-05-24T11:51:30.469Z,11.94
2023-05-24T11:52:31.964Z,11.92
2023-05-24T11:53:33.501Z,11.92
2023-05-24T11:54:35.068Z,11.92
2023-05-24T11:55:36.714Z,11.93
2023-05-24T11:56:38.328Z,11.96
2023-05-24T11:57:39.821Z,11.99
2023-05-24T11:58:41.321Z,11.99
2023-05-24T11:59:42.801Z,12.00
2023-05-24T12:00:44.506Z,11.99
2023-05-24T12:01:46.197Z,12.00
2023-05-24T12:02:47.746Z,12.00
2023-05-24T12:03:49.538Z,11.98
2023-05-24T12:04:51.171Z,11.98
2023-05-24T12:05:52.749Z,11.97
2023-05-24T12:06:54.327Z,11.97
2023-05-24T12:07:55.857Z,11.98
2023-05-24T12:08:57.384Z,11.97
2023-05-24T12:09:58.926Z,11.97
2023-05-24T12:11:00.422Z,11.98
2023-05-24T12:12:01.937Z,11.98
2023-05-24T12:13:03.447Z,11.99
2023-05-24T12:14:04.973Z,11.99
2023-05-24T12:15:06.470Z,12.00
2023-05-24T12:16:08.039Z,12.01
2023-05-24T12:17:09.618Z,12.04
2023-05-24T12:18:11.524Z,12.05
2023-05-24T12:19:23.976Z,12.07
2023-05-24T12:20:33.659Z,12.11
2023-05-24T12:21:35.278Z,12.10
2023-05-24T12:22:36.933Z,12.10
2023-05-24T12:23:38.446Z,12.11
2023-05-24T12:24:39.966Z,12.11
2023-05-24T12:25:41.468Z,12.12
2023-05-24T12:26:42.979Z,12.12
2023-05-24T12:27:44.481Z,12.13
2023-05-24T12:28:45.970Z,12.15
2023-05-24T12:29:47.456Z,12.14
2023-05-24T12:30:49.356Z,12.13
2023-05-24T12:31:50.959Z,12.13
2023-05-24T12:32:52.586Z,12.14
2023-05-24T12:33:54.542Z,12.14
2023-05-24T12:34:56.135Z,12.14
2023-05-24T12:35:57.690Z,12.12
2023-05-24T12:36:59.211Z,12.12
2023-05-24T12:38:00.732Z,12.14
2023-05-24T12:39:02.229Z,12.16
2023-05-24T12:40:03.727Z,12.17
2023-05-24T12:41:12.412Z,12.18
2023-05-24T12:42:15.329Z,12.24
2023-05-24T12:43:16.810Z,12.23
2023-05-24T12:44:18.309Z,12.23
2023-05-24T12:45:19.776Z,12.23
2023-05-24T12:46:21.522Z,12.23
2023-05-24T12:47:23.187Z,12.24
2023-05-24T12:48:24.820Z,12.22
2023-05-24T12:49:26.362Z,12.22
2023-05-24T12:50:27.859Z,12.23
2023-05-24T12:51:29.359Z,12.24
2023-05-24T12:52:30.876Z,12.24
2023-05-24T12:53:32.402Z,12.25
2023-05-24T12:54:33.871Z,12.26
2023-05-24T12:55:35.373Z,12.25
2023-05-24T12:56:36.846Z,12.25
2023-05-24T12:57:38.363Z,12.26
2023-05-24T12:58:39.882Z,12.25
2023-05-24T12:59:41.428Z,12.25
2023-05-24T13:00:43.175Z,12.22
2023-05-24T13:01:44.916Z,12.20
2023-05-24T13:02:46.477Z,12.22
2023-05-24T13:03:48.058Z,12.22
2023-05-24T13:04:49.601Z,12.21
2023-05-24T13:05:51.174Z,12.24
2023-05-24T13:06:52.722Z,12.24
2023-05-24T13:07:54.213Z,12.25
2023-05-24T13:08:55.766Z,12.26
2023-05-24T13:09:57.343Z,12.26
2023-05-24T13:10:58.982Z,12.27
2023-05-24T13:12:00.511Z,12.29
2023-05-24T13:13:02.015Z,12.29
2023-05-24T13:14:03.579Z,12.29
2023-05-24T13:15:05.095Z,12.30
2023-05-24T13:16:06.608Z,12.30
2023-05-24T13:17:08.183Z,12.31
2023-05-24T13:18:09.801Z,12.32
2023-05-24T13:19:11.345Z,12.33
2023-05-24T13:20:12.897Z,12.34
2023-05-24T13:21:14.531Z,12.36
2023-05-24T13:22:16.085Z,12.39
2023-05-24T13:23:17.646Z,12.42
2023-05-24T13:24:19.258Z,12.45
2023-05-24T13:25:20.837Z,12.47
2023-05-24T13:26:22.410Z,12.48
2023-05-24T13:27:23.961Z,12.51
2023-05-24T13:28:25.470Z,12.54
2023-05-24T13:29:39.207Z,12.55
2023-05-24T13:30:44.445Z,12.60